Time;durP1;ratioP1;P1;durP2;ratioP2;P2;SDS_P1;SDS_P2;PMS_P1;PMS_P2;Temp;Humidity;BMP_temperature;BMP_pressure;BME280_temperature;BME280_humidity;BME280_pressure;Samples;Min_cycle;Max_cycle;Signal;HPM_P1;HPM_P2
2023/10/03 00:02:06;;;;;;;8.20;3.63;;;12.30;99.90;;;;;;5039742;28;20025;-78
2023/10/03 00:04:32;;;;;;;7.45;3.47;;;12.20;99.90;;;;;;5022985;28;20029;-78
2023/10/03 00:06:58;;;;;;;10.73;3.95;;;12.20;99.90;;;;;;5041977;28;20035;-78
2023/10/03 00:09:25;;;;;;;9.48;3.80;;;12.20;99.90;;;;;;5041866;28;20185;-78
2023/10/03 00:11:51;;;;;;;7.82;3.30;;;12.10;99.90;;;;;;5041586;28;20028;-79
2023/10/03 00:14:16;;;;;;;8.90;4.03;;;12.10;99.90;;;;;;5040958;28;20030;-78
2023/10/03 00:16:44;;;;;;;10.48;3.38;;;12.10;99.90;;;;;;5040995;28;20057;-78
2023/10/03 00:19:10;;;;;;;10.27;3.30;;;12.10;99.90;;;;;;5041066;28;20029;-78
2023/10/03 00:21:36;;;;;;;8.35;3.35;;;12.00;99.90;;;;;;5010997;28;20037;-78
2023/10/03 00:24:02;;;;;;;11.13;3.83;;;12.00;99.90;;;;;;5038889;28;20034;-78
2023/10/03 00:26:28;;;;;;;10.77;3.65;;;12.00;99.90;;;;;;5040710;28;20561;-78
2023/10/03 00:28:56;;;;;;;9.15;3.28;;;12.00;99.90;;;;;;5023030;28;20080;-78
2023/10/03 00:31:22;;;;;;;10.45;3.85;;;11.90;99.90;;;;;;5041286;28;20393;-78
2023/10/03 00:33:48;;;;;;;10.00;3.95;;;11.90;99.90;;;;;;5041130;28;20026;-78
2023/10/03 00:36:27;;;;;;;7.25;3.15;;;11.80;99.90;;;;;;5042119;28;20393;-78
2023/10/03 00:38:53;;;;;;;8.57;3.78;;;11.80;99.90;;;;;;5041265;28;20029;-78
2023/10/03 00:41:19;;;;;;;7.28;3.47;;;11.80;99.90;;;;;;5022235;28;20036;-78
2023/10/03 00:43:58;;;;;;;9.20;3.08;;;11.70;99.90;;;;;;5023915;28;20036;-78
2023/10/03 00:46:24;;;;;;;6.90;3.42;;;11.60;99.90;;;;;;5024088;28;20035;-78
2023/10/03 00:48:50;;;;;;;6.53;3.08;;;11.50;99.90;;;;;;5042025;28;20029;-78
2023/10/03 00:51:20;;;;;;;7.45;3.05;;;11.50;99.90;;;;;;5024460;28;20035;-78
2023/10/03 00:53:46;;;;;;;7.10;3.20;;;11.50;99.90;;;;;;5041344;28;20022;-78
2023/10/03 00:56:12;;;;;;;10.02;3.35;;;11.40;99.90;;;;;;5040618;28;20104;-78
2023/10/03 00:58:39;;;;;;;7.35;3.08;;;11.40;99.90;;;;;;5041320;28;20075;-78
2023/10/03 01:01:05;;;;;;;7.40;3.30;;;11.40;99.90;;;;;;5039955;28;20037;-78
2023/10/03 01:03:38;;;;;;;8.05;2.90;;;11.40;99.90;;;;;;5023500;28;20033;-78
2023/10/03 01:06:08;;;;;;;7.20;3.40;;;11.40;99.90;;;;;;5042248;28;20041;-78
2023/10/03 01:08:46;;;;;;;6.88;2.85;;;11.30;99.90;;;;;;5041251;28;20026;-78
2023/10/03 01:11:16;;;;;;;7.57;2.90;;;11.30;99.90;;;;;;5029540;28;20028;-77
2023/10/03 01:13:46;;;;;;;7.65;2.95;;;11.30;99.90;;;;;;5035137;28;20060;-78
2023/10/03 01:16:12;;;;;;;7.72;3.00;;;11.30;99.90;;;;;;5023297;28;20076;-78
2023/10/03 01:18:41;;;;;;;6.82;3.70;;;11.30;99.90;;;;;;5041348;28;20049;-78
2023/10/03 01:21:10;;;;;;;6.97;3.00;;;11.20;99.90;;;;;;5041507;28;20018;-77
2023/10/03 01:23:37;;;;;;;10.50;2.85;;;11.20;99.90;;;;;;5024142;28;20044;-78
2023/10/03 01:26:05;;;;;;;8.88;3.42;;;11.20;99.90;;;;;;5041669;28;20152;-78
2023/10/03 01:28:31;;;;;;;9.32;3.47;;;11.20;99.90;;;;;;5042128;28;20014;-78
2023/10/03 01:30:57;;;;;;;9.60;3.13;;;11.20;99.90;;;;;;5024815;28;20052;-78
2023/10/03 01:33:26;;;;;;;7.28;3.65;;;11.20;99.90;;;;;;5043220;28;20091;-78
2023/10/03 01:35:55;;;;;;;8.20;3.05;;;11.20;99.90;;;;;;5042903;28;20053;-78
2023/10/03 01:38:22;;;;;;;8.50;3.30;;;11.10;99.90;;;;;;5043357;28;20018;-78
2023/10/03 01:40:58;;;;;;;6.80;2.58;;;11.10;99.90;;;;;;5041794;28;20094;-78
2023/10/03 01:43:24;;;;;;;6.07;2.80;;;11.10;99.90;;;;;;5041854;28;20072;-79
2023/10/03 01:45:50;;;;;;;7.22;2.78;;;11.10;99.90;;;;;;5023092;28;20033;-79
2023/10/03 01:48:17;;;;;;;6.78;2.85;;;11.00;99.90;;;;;;5039856;28;20018;-80
2023/10/03 01:50:44;;;;;;;8.90;3.10;;;11.00;99.90;;;;;;5039383;28;20049;-80
2023/10/03 01:53:11;;;;;;;6.82;2.88;;;11.00;99.90;;;;;;5039533;28;20036;-80
2023/10/03 01:55:37;;;;;;;9.13;3.30;;;11.00;99.90;;;;;;5021421;28;20156;-80
2023/10/03 01:58:04;;;;;;;7.80;3.42;;;11.00;99.90;;;;;;5022267;28;20029;-80
2023/10/03 02:00:31;;;;;;;6.57;2.60;;;10.90;99.90;;;;;;5040147;28;20113;-80
2023/10/03 02:03:05;;;;;;;6.88;2.67;;;10.90;99.90;;;;;;5039506;28;20029;-80
2023/10/03 02:05:38;;;;;;;7.45;2.95;;;10.90;99.90;;;;;;5039456;28;20025;-80
2023/10/03 02:08:10;;;;;;;8.75;3.28;;;10.90;99.90;;;;;;5021981;28;20033;-80
2023/10/03 02:10:36;;;;;;;6.85;3.13;;;10.90;99.90;;;;;;5038629;28;20109;-80
2023/10/03 02:13:09;;;;;;;7.00;2.78;;;10.80;99.90;;;;;;5042004;28;20025;-80
2023/10/03 02:15:36;;;;;;;7.93;3.38;;;10.80;99.90;;;;;;5043191;28;20454;-79
2023/10/03 02:18:03;;;;;;;8.68;3.95;;;10.80;99.90;;;;;;5043817;28;20026;-79
2023/10/03 02:20:30;;;;;;;8.77;3.50;;;10.80;99.90;;;;;;5043412;28;20034;-79
2023/10/03 02:22:57;;;;;;;7.00;2.97;;;10.70;99.90;;;;;;5043149;28;20032;-80
2023/10/03 02:25:30;;;;;;;9.43;3.40;;;10.70;99.90;;;;;;5044078;28;20017;-79
2023/10/03 02:27:57;;;;;;;6.88;2.75;;;10.60;99.90;;;;;;5025574;28;20084;-79
2023/10/03 02:30:25;;;;;;;6.43;2.20;;;10.50;99.90;;;;;;5043346;28;20378;-79
2023/10/03 02:33:03;;;;;;;6.90;2.55;;;10.50;99.90;;;;;;5025089;28;20401;-80
2023/10/03 02:35:29;;;;;;;5.65;2.45;;;10.50;99.90;;;;;;5026829;28;20037;-79
2023/10/03 02:37:56;;;;;;;7.20;3.22;;;10.50;99.90;;;;;;5042611;28;20037;-80
2023/10/03 02:40:26;;;;;;;7.70;3.28;;;10.40;99.90;;;;;;5043041;28;20040;-78
2023/10/03 02:42:53;;;;;;;7.38;2.80;;;10.40;99.90;;;;;;5025067;28;20021;-80
2023/10/03 02:45:23;;;;;;;8.40;2.72;;;10.40;99.90;;;;;;5042631;28;20099;-79
2023/10/03 02:47:51;;;;;;;7.50;3.15;;;10.30;99.90;;;;;;5042686;28;20119;-80
2023/10/03 02:50:17;;;;;;;8.02;2.70;;;10.30;99.90;;;;;;5042292;28;20496;-80
2023/10/03 02:52:45;;;;;;;6.43;2.70;;;10.30;99.90;;;;;;5042528;28;20026;-79
2023/10/03 02:55:15;;;;;;;6.63;2.85;;;10.30;99.90;;;;;;5042768;28;20096;-79
2023/10/03 02:57:41;;;;;;;5.65;2.63;;;10.20;99.90;;;;;;5042343;28;20049;-79
2023/10/03 03:00:15;;;;;;;6.75;2.30;;;10.20;99.90;;;;;;5024964;28;20481;-79
2023/10/03 03:02:47;;;;;;;8.02;2.63;;;10.10;99.90;;;;;;5052462;28;20470;-80
2023/10/03 03:05:17;;;;;;;5.43;2.22;;;10.10;99.90;;;;;;5049161;28;20080;-79
2023/10/03 03:07:46;;;;;;;5.97;2.38;;;10.10;99.90;;;;;;5030876;28;20017;-80
2023/10/03 03:10:17;;;;;;;6.93;3.10;;;10.10;99.90;;;;;;5024926;28;20025;-80
2023/10/03 03:12:46;;;;;;;8.50;3.35;;;10.10;99.90;;;;;;5029659;28;20052;-80
2023/10/03 03:15:21;;;;;;;6.65;2.83;;;10.10;99.90;;;;;;5021785;28;20022;-80
2023/10/03 03:17:48;;;;;;;6.88;2.63;;;10.10;99.90;;;;;;5022382;28;20022;-80
2023/10/03 03:20:50;;;;;;;8.18;3.20;;;10.10;99.90;;;;;;5019991;28;20033;-80
2023/10/03 03:23:06;;;;;;;8.05;3.22;;;10.10;99.90;;;;;;5032476;28;20037;-80
2023/10/03 03:25:38;;;;;;;6.72;2.67;;;10.00;99.90;;;;;;5041264;28;20037;-80
2023/10/03 03:28:12;;;;;;;8.77;3.35;;;10.10;99.90;;;;;;5021582;28;20081;-79
2023/10/03 03:30:45;;;;;;;7.72;3.15;;;10.00;99.90;;;;;;5003721;28;20030;-80
2023/10/03 03:33:19;;;;;;;6.95;2.67;;;10.00;99.90;;;;;;5017263;28;20022;-79
2023/10/03 03:35:48;;;;;;;7.07;2.80;;;10.00;99.90;;;;;;5042011;28;20530;-79
2023/10/03 03:38:18;;;;;;;5.40;2.35;;;10.00;99.90;;;;;;5017650;28;20461;-79
2023/10/03 03:40:55;;;;;;;7.10;2.90;;;9.90;99.90;;;;;;5021593;28;20057;-78
2023/10/03 03:43:21;;;;;;;6.40;2.72;;;9.90;99.90;;;;;;5021228;28;20026;-79
2023/10/03 03:45:48;;;;;;;9.77;3.38;;;9.90;99.90;;;;;;5021998;28;20033;-79
2023/10/03 03:48:14;;;;;;;7.40;3.05;;;9.90;99.90;;;;;;5026984;28;20025;-80
2023/10/03 03:50:41;;;;;;;8.63;2.47;;;9.80;99.90;;;;;;5042833;28;20029;-79
2023/10/03 03:53:07;;;;;;;5.97;2.47;;;9.80;99.90;;;;;;5044648;28;20033;-79
2023/10/03 03:55:35;;;;;;;6.90;2.63;;;9.80;99.90;;;;;;5042866;28;20113;-79
2023/10/03 03:58:05;;;;;;;5.30;2.50;;;9.80;99.90;;;;;;5009684;28;20077;-79
2023/10/03 04:00:32;;;;;;;10.30;2.95;;;9.80;99.90;;;;;;5044050;28;20021;-80
2023/10/03 04:03:00;;;;;;;6.57;2.30;;;9.80;99.90;;;;;;5024958;28;20037;-80
2023/10/03 04:05:25;;;;;;;8.98;2.70;;;9.80;99.90;;;;;;5043903;28;20453;-79
2023/10/03 04:07:53;;;;;;;6.63;2.65;;;9.80;99.90;;;;;;5042467;28;20060;-79
2023/10/03 04:10:19;;;;;;;7.05;3.08;;;9.80;99.90;;;;;;5042867;28;20025;-79
2023/10/03 04:12:45;;;;;;;6.13;2.70;;;9.70;99.90;;;;;;5043528;28;20069;-80
2023/10/03 04:15:15;;;;;;;5.90;2.72;;;9.70;99.90;;;;;;5026041;28;20080;-79
2023/10/03 04:17:42;;;;;;;5.93;2.17;;;9.60;99.90;;;;;;5031034;28;20030;-79
2023/10/03 04:22:48;;;;;;;8.38;3.13;;;9.60;99.90;;;;;;5033709;28;20109;-80
2023/10/03 04:25:14;;;;;;;7.03;2.72;;;9.50;99.90;;;;;;5032642;28;20036;-80
2023/10/03 04:27:40;;;;;;;8.80;3.22;;;9.40;99.90;;;;;;5026357;28;20112;-79
2023/10/03 04:30:13;;;;;;;6.60;2.78;;;9.30;99.90;;;;;;5018418;28;20049;-79
2023/10/03 04:32:47;;;;;;;8.02;3.08;;;9.20;99.90;;;;;;5040184;28;20056;-79
2023/10/03 04:35:14;;;;;;;6.50;2.80;;;9.10;99.90;;;;;;5040367;28;20445;-79
2023/10/03 04:37:43;;;;;;;8.00;2.85;;;9.10;99.90;;;;;;5040540;28;20018;-79
2023/10/03 04:40:12;;;;;;;8.55;3.55;;;9.10;99.90;;;;;;5038840;28;20414;-79
2023/10/03 04:42:41;;;;;;;8.80;2.95;;;9.10;99.90;;;;;;5039810;28;20497;-79
2023/10/03 04:45:13;;;;;;;6.85;2.72;;;9.20;99.90;;;;;;5040688;28;20029;-79
2023/10/03 04:47:41;;;;;;;7.78;3.17;;;9.20;99.90;;;;;;5034604;28;20034;-79
2023/10/03 04:50:08;;;;;;;11.60;4.32;;;9.20;99.90;;;;;;5020052;28;20502;-79
2023/10/03 04:52:34;;;;;;;8.48;3.50;;;9.20;99.90;;;;;;5020283;28;20030;-79
2023/10/03 04:54:59;;;;;;;7.68;3.63;;;9.20;99.90;;;;;;5020493;28;20072;-79
2023/10/03 04:57:27;;;;;;;7.63;3.13;;;9.20;99.90;;;;;;5002880;28;20415;-79
2023/10/03 04:59:56;;;;;;;7.85;3.00;;;9.20;99.90;;;;;;5034681;28;20025;-79
2023/10/03 05:02:23;;;;;;;7.43;2.83;;;9.20;99.90;;;;;;5027398;28;20116;-79
2023/10/03 05:04:49;;;;;;;8.02;3.28;;;9.10;99.90;;;;;;5039921;28;20057;-79
2023/10/03 05:07:15;;;;;;;11.75;4.22;;;9.20;99.90;;;;;;5040578;28;20397;-79
2023/10/03 05:09:41;;;;;;;23.83;10.13;;;9.20;99.90;;;;;;5040169;28;20029;-79
2023/10/03 05:12:06;;;;;;;18.52;8.85;;;9.10;99.90;;;;;;5022292;28;20052;-79
2023/10/03 05:14:35;;;;;;;13.98;8.07;;;9.20;99.90;;;;;;5039500;28;20025;-79
2023/10/03 05:17:01;;;;;;;13.90;5.90;;;9.10;99.90;;;;;;5040030;28;20108;-79
2023/10/03 05:19:28;;;;;;;9.20;4.57;;;9.20;99.90;;;;;;5039887;28;20056;-79
2023/10/03 05:21:54;;;;;;;6.90;3.83;;;9.10;99.90;;;;;;5039192;28;20645;-79
2023/10/03 05:24:19;;;;;;;11.15;3.83;;;9.20;99.90;;;;;;5039539;28;20065;-79
2023/10/03 05:26:45;;;;;;;8.57;4.50;;;9.20;99.90;;;;;;5038965;28;20033;-79
2023/10/03 05:29:11;;;;;;;8.77;4.22;;;9.20;99.90;;;;;;5039553;28;20367;-79
2023/10/03 05:31:40;;;;;;;6.72;3.15;;;9.20;99.90;;;;;;5021740;28;20100;-79
2023/10/03 05:34:08;;;;;;;8.00;2.70;;;9.20;99.90;;;;;;5039748;28;20026;-79
2023/10/03 05:36:33;;;;;;;6.53;2.78;;;9.10;99.90;;;;;;5040104;28;20029;-79
2023/10/03 05:38:59;;;;;;;5.68;2.72;;;9.10;99.90;;;;;;5039531;28;20037;-79
2023/10/03 05:41:25;;;;;;;7.78;2.72;;;9.00;99.90;;;;;;5038697;28;20103;-79
2023/10/03 05:43:51;;;;;;;5.60;2.22;;;9.00;99.90;;;;;;5039801;28;20490;-79
2023/10/03 05:46:17;;;;;;;7.55;2.80;;;8.90;99.90;;;;;;5038817;28;20397;-79
2023/10/03 05:48:43;;;;;;;8.27;3.20;;;8.90;99.90;;;;;;5040955;28;20025;-79
2023/10/03 05:51:09;;;;;;;8.00;3.42;;;8.80;99.90;;;;;;5040905;28;20037;-79
2023/10/03 05:53:35;;;;;;;7.65;2.78;;;8.80;99.90;;;;;;5042493;28;20033;-79
2023/10/03 05:56:04;;;;;;;8.82;2.92;;;8.80;99.90;;;;;;5042526;28;20056;-80
2023/10/03 05:58:30;;;;;;;10.13;3.17;;;8.80;99.90;;;;;;5024850;28;20021;-79
2023/10/03 06:00:56;;;;;;;6.00;2.53;;;8.90;99.90;;;;;;5043914;28;20548;-79
2023/10/03 06:03:21;;;;;;;9.18;3.38;;;8.90;99.90;;;;;;5043604;28;20112;-80
2023/10/03 06:05:47;;;;;;;8.70;3.22;;;8.90;99.90;;;;;;5043107;28;20029;-83
2023/10/03 06:08:13;;;;;;;9.93;3.40;;;9.00;99.90;;;;;;5044092;28;20083;-79
2023/10/03 06:10:42;;;;;;;9.90;3.75;;;9.00;99.90;;;;;;5043807;28;20026;-80
2023/10/03 06:13:10;;;;;;;7.43;3.47;;;9.10;99.90;;;;;;5025633;28;20032;-79
2023/10/03 06:15:40;;;;;;;9.55;3.53;;;9.10;99.90;;;;;;5043336;28;20481;-79
2023/10/03 06:18:05;;;;;;;8.65;3.33;;;9.20;99.90;;;;;;5025277;28;20034;-79
2023/10/03 06:20:31;;;;;;;11.18;3.17;;;9.20;99.90;;;;;;5044000;28;20041;-79
2023/10/03 06:22:57;;;;;;;8.77;3.35;;;9.20;99.90;;;;;;5034538;28;20045;-79
2023/10/03 06:25:24;;;;;;;6.75;2.72;;;9.30;99.90;;;;;;5034724;28;20097;-79
2023/10/03 06:27:49;;;;;;;7.93;2.97;;;9.30;99.90;;;;;;5042912;28;20040;-79
2023/10/03 06:30:15;;;;;;;6.93;3.58;;;9.40;99.90;;;;;;5042846;28;20529;-79
2023/10/03 06:32:41;;;;;;;9.07;3.00;;;9.50;99.90;;;;;;5025392;28;20057;-79
2023/10/03 06:35:09;;;;;;;7.22;2.92;;;9.50;99.90;;;;;;5042706;28;20029;-79
2023/10/03 06:37:35;;;;;;;6.55;2.88;;;9.60;99.90;;;;;;5042291;28;20030;-79
2023/10/03 06:40:06;;;;;;;6.65;3.22;;;9.60;99.90;;;;;;5042319;28;20497;-79
2023/10/03 06:42:35;;;;;;;6.27;2.80;;;9.70;99.90;;;;;;5024953;28;20535;-79
2023/10/03 06:45:05;;;;;;;7.97;3.30;;;9.70;99.90;;;;;;5042541;28;20474;-79
2023/10/03 06:47:33;;;;;;;7.88;2.72;;;9.70;99.90;;;;;;5025578;28;20033;-79
2023/10/03 06:49:59;;;;;;;6.97;3.05;;;9.80;99.90;;;;;;5042234;28;20093;-79
2023/10/03 06:52:25;;;;;;;7.22;3.03;;;9.90;99.90;;;;;;5042443;28;20056;-79
2023/10/03 06:54:51;;;;;;;6.22;3.08;;;9.90;99.90;;;;;;5042264;28;20378;-79
2023/10/03 06:57:17;;;;;;;6.57;3.40;;;10.00;99.90;;;;;;5040568;28;20026;-79
2023/10/03 06:59:43;;;;;;;7.70;3.05;;;10.00;99.90;;;;;;5042327;28;20464;-79
2023/10/03 07:02:08;;;;;;;9.80;3.55;;;10.10;99.90;;;;;;5024364;28;20029;-79
2023/10/03 07:04:34;;;;;;;9.20;4.20;;;10.10;99.90;;;;;;5042087;28;20037;-79
2023/10/03 07:07:01;;;;;;;7.90;3.63;;;10.20;99.90;;;;;;5041706;28;20087;-79
2023/10/03 07:09:27;;;;;;;11.82;3.72;;;10.30;99.90;;;;;;5024338;28;20056;-79
2023/10/03 07:11:54;;;;;;;10.10;4.00;;;10.40;99.90;;;;;;5041886;28;20029;-79
2023/10/03 07:14:20;;;;;;;9.20;3.47;;;10.40;99.90;;;;;;5042708;28;20071;-79
2023/10/03 07:16:48;;;;;;;8.65;4.03;;;10.50;99.90;;;;;;5042300;28;20441;-79
2023/10/03 07:19:14;;;;;;;10.85;4.47;;;10.60;99.90;;;;;;5042124;28;20474;-79
2023/10/03 07:21:41;;;;;;;12.77;4.32;;;10.70;99.90;;;;;;5042189;28;20099;-79
2023/10/03 07:24:07;;;;;;;9.98;3.80;;;10.80;99.90;;;;;;5042186;28;20044;-79
2023/10/03 07:26:32;;;;;;;10.27;4.03;;;10.90;99.90;;;;;;5042267;28;20478;-79
2023/10/03 07:29:02;;;;;;;11.25;3.90;;;11.00;99.90;;;;;;5041371;28;20393;-79
2023/10/03 07:31:29;;;;;;;13.52;4.40;;;11.20;99.90;;;;;;5024573;28;20030;-79
2023/10/03 07:33:56;;;;;;;10.52;4.07;;;11.30;99.90;;;;;;5041741;28;20032;-79
2023/10/03 07:36:23;;;;;;;9.27;4.07;;;11.40;99.90;;;;;;5024547;28;20030;-79
2023/10/03 07:38:49;;;;;;;9.07;3.88;;;11.50;99.90;;;;;;5042473;28;20096;-79
2023/10/03 07:41:17;;;;;;;12.65;4.43;;;11.60;99.90;;;;;;5041958;28;20018;-79
2023/10/03 07:43:52;;;;;;;10.07;4.05;;;11.70;99.90;;;;;;5041888;28;20029;-79
2023/10/03 07:46:22;;;;;;;10.73;4.00;;;11.90;99.90;;;;;;5041894;28;20108;-79
2023/10/03 07:48:52;;;;;;;9.90;3.83;;;12.00;99.90;;;;;;5042514;28;20026;-79
2023/10/03 07:51:19;;;;;;;15.73;5.13;;;12.10;99.90;;;;;;5042205;28;20031;-79
2023/10/03 07:53:46;;;;;;;9.90;4.30;;;12.20;99.90;;;;;;5023994;28;20030;-79
2023/10/03 07:56:17;;;;;;;9.77;3.70;;;12.40;99.90;;;;;;5023827;28;20073;-79
2023/10/03 07:58:44;;;;;;;14.57;4.60;;;12.50;99.90;;;;;;5041485;28;20018;-79
2023/10/03 08:01:13;;;;;;;12.07;5.20;;;12.60;99.90;;;;;;5041094;28;20034;-79
2023/10/03 08:03:39;;;;;;;14.35;4.88;;;12.80;99.90;;;;;;5041871;28;20112;-79
2023/10/03 08:06:05;;;;;;;10.75;4.32;;;12.90;99.90;;;;;;5023744;28;20033;-79
2023/10/03 08:08:30;;;;;;;9.13;4.13;;;13.10;99.90;;;;;;5039820;28;20092;-77
2023/10/03 08:10:58;;;;;;;10.80;4.25;;;13.20;99.90;;;;;;5034550;28;20030;-78
2023/10/03 08:13:23;;;;;;;11.27;4.50;;;13.30;99.90;;;;;;5034450;28;20022;-78
2023/10/03 08:15:49;;;;;;;10.70;4.70;;;13.50;99.90;;;;;;5034780;28;20026;-77
2023/10/03 08:18:17;;;;;;;10.00;4.80;;;13.60;99.90;;;;;;5034595;28;20087;-77
2023/10/03 08:20:47;;;;;;;10.75;4.43;;;13.70;99.90;;;;;;5034558;28;20112;-78
2023/10/03 08:23:17;;;;;;;9.13;3.90;;;13.90;99.90;;;;;;5034837;28;20381;-77
2023/10/03 08:25:43;;;;;;;8.50;3.90;;;14.00;99.90;;;;;;5034193;28;20108;-78
2023/10/03 08:28:10;;;;;;;10.23;3.90;;;14.10;99.90;;;;;;5033969;28;20164;-78
2023/10/03 08:30:35;;;;;;;10.10;3.50;;;14.30;99.90;;;;;;5033994;28;20026;-77
2023/10/03 08:33:05;;;;;;;10.60;4.03;;;14.40;99.90;;;;;;5034194;28;20386;-78
2023/10/03 08:35:40;;;;;;;10.75;3.70;;;14.60;99.90;;;;;;5034064;28;20029;-78
2023/10/03 08:38:08;;;;;;;11.95;4.05;;;14.80;99.90;;;;;;5034400;28;20026;-78
2023/10/03 08:40:39;;;;;;;9.00;3.42;;;14.90;99.90;;;;;;5016255;28;20022;-78
2023/10/03 08:43:12;;;;;;;8.98;3.63;;;15.10;99.90;;;;;;5034027;28;20029;-77
2023/10/03 08:45:40;;;;;;;10.40;3.90;;;15.20;99.90;;;;;;5016558;28;20037;-77
2023/10/03 08:48:06;;;;;;;10.80;3.70;;;15.40;99.90;;;;;;5033846;28;20117;-77
2023/10/03 08:50:46;;;;;;;10.90;4.47;;;15.60;99.90;;;;;;5016225;28;20105;-78
2023/10/03 08:53:27;;;;;;;10.52;4.28;;;15.70;99.90;;;;;;5033870;28;20474;-77
2023/10/03 08:56:02;;;;;;;10.52;3.90;;;15.80;99.90;;;;;;5034062;28;20026;-77
2023/10/03 08:58:28;;;;;;;10.13;4.03;;;15.90;99.90;;;;;;5033567;28;20022;-77
2023/10/03 09:01:04;;;;;;;9.25;4.03;;;16.00;99.90;;;;;;5033545;28;20036;-78
2023/10/03 09:03:47;;;;;;;10.73;3.88;;;16.10;99.90;;;;;;5033600;28;20021;-77
2023/10/03 09:06:19;;;;;;;9.80;4.07;;;16.30;99.90;;;;;;5034186;28;20030;-77
2023/10/03 09:09:08;;;;;;;9.85;4.40;;;16.40;99.90;;;;;;5033487;28;20033;-77
2023/10/03 09:11:37;;;;;;;12.90;5.28;;;16.60;99.90;;;;;;5015839;28;20032;-78
2023/10/03 09:14:07;;;;;;;9.75;4.53;;;16.80;99.90;;;;;;5033281;28;20378;-77
2023/10/03 09:16:40;;;;;;;13.63;4.57;;;17.00;99.90;;;;;;5033463;28;20112;-77
2023/10/03 09:19:13;;;;;;;9.52;4.38;;;17.10;99.90;;;;;;5033809;28;20037;-78
2023/10/03 09:21:39;;;;;;;8.93;4.35;;;17.20;99.90;;;;;;5032994;28;20497;-78
2023/10/03 09:24:14;;;;;;;10.50;4.43;;;17.40;99.90;;;;;;5015683;28;20057;-77
2023/10/03 09:26:45;;;;;;;11.15;5.05;;;17.50;99.90;;;;;;5033741;28;20021;-78
2023/10/03 09:29:18;;;;;;;11.27;5.15;;;17.60;99.90;;;;;;5033318;28;20481;-78
2023/10/03 09:31:46;;;;;;;13.20;4.53;;;17.70;99.90;;;;;;5033542;28;20032;-78
2023/10/03 09:34:14;;;;;;;13.18;4.75;;;17.80;99.90;;;;;;5033768;28;20022;-77
2023/10/03 09:36:40;;;;;;;10.73;4.55;;;17.90;99.90;;;;;;5034360;28;20025;-77
2023/10/03 09:39:21;;;;;;;11.80;4.55;;;18.00;99.90;;;;;;5034121;28;20088;-78
2023/10/03 09:41:57;;;;;;;12.95;5.82;;;18.10;99.90;;;;;;5033755;28;20025;-78
2023/10/03 09:44:32;;;;;;;11.52;4.90;;;18.20;99.90;;;;;;5033972;28;20030;-78
2023/10/03 09:47:04;;;;;;;16.25;5.30;;;18.40;99.90;;;;;;5033565;28;20362;-77
2023/10/03 09:49:38;;;;;;;11.23;5.13;;;18.50;99.90;;;;;;5015458;28;20485;-77
2023/10/03 09:52:09;;;;;;;11.23;4.93;;;18.60;99.90;;;;;;5015447;28;20489;-77
2023/10/03 09:54:36;;;;;;;14.55;6.07;;;18.80;99.90;;;;;;5033197;28;20030;-77
2023/10/03 09:57:15;;;;;;;15.30;6.50;;;18.90;99.90;;;;;;5033393;28;20358;-77
2023/10/03 09:59:50;;;;;;;14.48;5.80;;;19.00;99.90;;;;;;5033199;28;20107;-77
2023/10/03 10:02:35;;;;;;;13.25;6.30;;;19.20;99.90;;;;;;5033435;28;20056;-78
2023/10/03 10:05:20;;;;;;;13.82;6.47;;;19.30;99.90;;;;;;5033134;28;20025;-77
2023/10/03 10:08:20;;;;;;;12.15;5.90;;;19.50;99.90;;;;;;5033298;28;20021;-77
2023/10/03 10:11:12;;;;;;;14.27;6.35;;;19.60;99.90;;;;;;5032967;28;20087;-77
2023/10/03 10:13:44;;;;;;;13.57;5.57;;;19.70;99.90;;;;;;5032702;28;20473;-77
2023/10/03 10:18:45;;;;;;;13.00;5.50;;;19.90;99.90;;;;;;5033158;28;20036;-78
2023/10/03 10:21:37;;;;;;;12.65;5.72;;;20.00;99.90;;;;;;5032857;28;20014;-77
2023/10/03 10:24:20;;;;;;;15.35;6.07;;;20.10;99.90;;;;;;5033798;28;20022;-77
2023/10/03 10:26:59;;;;;;;13.93;5.88;;;20.20;99.90;;;;;;5033642;28;20030;-78
2023/10/03 10:29:25;;;;;;;13.43;5.72;;;20.40;99.90;;;;;;5032799;28;20045;-78
2023/10/03 10:31:58;;;;;;;12.30;6.00;;;20.50;99.90;;;;;;5033996;28;20045;-77
2023/10/03 10:34:27;;;;;;;13.10;6.15;;;20.60;99.90;;;;;;5037255;28;20053;-78
2023/10/03 10:37:01;;;;;;;13.57;6.22;;;20.70;99.90;;;;;;5037354;28;20100;-78
2023/10/03 10:42:55;;;;;;;13.55;6.60;;;20.90;99.90;;;;;;5040228;28;20474;-79
2023/10/03 10:45:25;;;;;;;15.52;6.65;;;21.00;99.90;;;;;;5040121;28;20060;-78
2023/10/03 10:47:51;;;;;;;17.40;6.82;;;21.10;99.90;;;;;;5023180;28;20040;-78
2023/10/03 10:50:17;;;;;;;16.48;6.65;;;21.20;99.90;;;;;;5042300;28;20030;-78
2023/10/03 10:52:53;;;;;;;13.75;6.32;;;21.30;99.90;;;;;;5041607;28;20028;-78
2023/10/03 10:55:21;;;;;;;15.27;6.30;;;21.40;99.90;;;;;;5041634;28;20492;-78
2023/10/03 10:57:47;;;;;;;12.80;6.03;;;21.50;99.90;;;;;;5040864;28;20025;-78
2023/10/03 11:00:22;;;;;;;15.10;7.05;;;21.60;99.90;;;;;;5041789;28;20054;-78
2023/10/03 11:02:48;;;;;;;13.75;6.43;;;21.70;99.90;;;;;;5030934;28;20101;-78
2023/10/03 11:05:14;;;;;;;16.73;6.57;;;21.80;99.90;;;;;;5022111;28;20045;-78
2023/10/03 11:07:49;;;;;;;17.23;6.70;;;22.00;99.90;;;;;;5021842;28;20037;-79
2023/10/03 11:10:17;;;;;;;13.57;6.53;;;22.00;99.90;;;;;;5002772;28;20123;-79
2023/10/03 11:12:43;;;;;;;15.18;7.28;;;22.10;99.90;;;;;;5001524;28;20482;-79
2023/10/03 11:15:15;;;;;;;14.13;6.03;;;22.30;99.90;;;;;;5019406;28;20053;-79
2023/10/03 11:17:48;;;;;;;16.05;7.05;;;22.30;99.90;;;;;;5023564;28;20022;-78
2023/10/03 11:20:16;;;;;;;16.75;7.45;;;22.40;99.90;;;;;;5023438;28;20459;-78
2023/10/03 11:22:44;;;;;;;14.00;6.28;;;22.50;99.90;;;;;;5022539;28;20026;-78
2023/10/03 11:25:10;;;;;;;15.45;7.07;;;22.50;99.90;;;;;;5017011;28;20053;-78
2023/10/03 11:27:37;;;;;;;14.80;6.85;;;22.60;99.90;;;;;;5018026;28;20028;-78
2023/10/03 11:30:25;;;;;;;13.13;6.63;;;22.60;99.90;;;;;;5017426;28;20026;-78
2023/10/03 11:33:00;;;;;;;13.23;5.80;;;22.70;99.90;;;;;;5028943;28;20022;-78
2023/10/03 11:35:26;;;;;;;14.10;6.78;;;22.90;99.90;;;;;;5035905;28;20084;-78
2023/10/03 11:37:53;;;;;;;14.85;6.80;;;23.00;99.90;;;;;;5036451;28;20029;-77
2023/10/03 11:40:20;;;;;;;14.95;6.60;;;23.10;99.90;;;;;;5036589;28;20087;-77
2023/10/03 11:43:04;;;;;;;20.10;7.80;;;23.10;99.90;;;;;;5035818;28;20033;-78
2023/10/03 11:45:32;;;;;;;15.23;7.20;;;23.20;99.80;;;;;;5035584;28;20032;-77
2023/10/03 11:47:58;;;;;;;15.00;7.40;;;23.30;99.70;;;;;;5017785;28;20436;-77
2023/10/03 11:50:25;;;;;;;17.67;7.43;;;23.50;99.20;;;;;;5036981;28;20026;-78
2023/10/03 11:52:56;;;;;;;16.08;7.30;;;23.60;99.10;;;;;;5036553;28;20025;-77
2023/10/03 11:55:23;;;;;;;15.38;7.28;;;23.60;98.60;;;;;;5037317;28;20029;-78
2023/10/03 11:57:49;;;;;;;15.95;6.82;;;23.60;97.80;;;;;;5037267;28;20072;-79
2023/10/03 12:00:15;;;;;;;14.73;7.07;;;23.60;98.10;;;;;;5036832;28;20199;-78
2023/10/03 12:02:44;;;;;;;14.40;7.28;;;23.60;99.70;;;;;;5037098;28;20109;-78
2023/10/03 12:05:11;;;;;;;12.32;6.25;;;23.70;99.40;;;;;;5036404;28;20401;-77
2023/10/03 12:07:39;;;;;;;12.80;6.65;;;23.70;99.00;;;;;;5037673;28;20129;-78
2023/10/03 12:10:06;;;;;;;16.00;7.53;;;23.80;99.20;;;;;;5036975;28;20029;-78
2023/10/03 12:12:32;;;;;;;15.00;7.68;;;23.90;99.50;;;;;;5036161;28;20051;-79
2023/10/03 12:14:58;;;;;;;13.73;6.90;;;23.90;98.80;;;;;;5036229;28;20025;-78
2023/10/03 12:17:24;;;;;;;13.93;7.45;;;23.90;98.90;;;;;;5036287;28;20033;-77
2023/10/03 12:19:50;;;;;;;15.85;7.03;;;23.90;98.70;;;;;;5036595;28;20049;-78
2023/10/03 12:22:16;;;;;;;14.45;7.05;;;23.90;98.40;;;;;;5035806;28;20049;-77
2023/10/03 12:24:41;;;;;;;15.23;7.25;;;23.90;99.30;;;;;;5035829;28;20030;-77
2023/10/03 12:27:07;;;;;;;17.13;6.82;;;23.90;99.90;;;;;;5035696;28;20033;-77
2023/10/03 12:29:32;;;;;;;15.82;8.80;;;23.90;99.90;;;;;;5017115;28;20056;-78
2023/10/03 12:31:59;;;;;;;21.38;9.60;;;24.00;99.90;;;;;;5017292;28;20375;-77
2023/10/03 12:34:26;;;;;;;16.42;8.65;;;24.10;99.10;;;;;;5035634;28;20033;-77
2023/10/03 12:36:52;;;;;;;14.57;7.97;;;24.20;99.40;;;;;;5035394;28;20025;-78
2023/10/03 12:39:20;;;;;;;18.65;9.07;;;24.30;99.20;;;;;;5034806;28;20371;-77
2023/10/03 12:41:46;;;;;;;17.67;8.75;;;24.40;99.20;;;;;;5035027;28;20052;-78
2023/10/03 12:44:13;;;;;;;16.40;8.23;;;24.60;98.60;;;;;;5034554;28;20030;-78
2023/10/03 12:46:39;;;;;;;15.73;7.68;;;24.80;98.40;;;;;;5035091;28;20026;-77
2023/10/03 12:49:07;;;;;;;14.82;8.02;;;24.90;97.50;;;;;;5034152;28;20025;-77
2023/10/03 12:51:33;;;;;;;17.00;8.38;;;25.10;97.50;;;;;;5034735;28;20057;-78
2023/10/03 12:53:59;;;;;;;17.05;7.72;;;25.30;97.00;;;;;;5035170;28;20041;-78
2023/10/03 12:56:25;;;;;;;16.23;8.63;;;25.40;96.60;;;;;;5033775;28;20482;-79
2023/10/03 12:58:50;;;;;;;14.70;8.02;;;25.50;96.20;;;;;;5034320;28;20029;-78
2023/10/03 13:01:16;;;;;;;17.38;8.27;;;25.50;95.10;;;;;;5034080;28;20060;-78
2023/10/03 13:03:43;;;;;;;18.65;8.50;;;25.60;96.50;;;;;;5036053;28;20025;-77